Herod, Illinois
Current Conditions -  °F | °C
As of 2:15 PM on Monday 24 Nov 2014 (Local Time) from KHSB Reporting Station
Broken Clouds Broken Clouds  
Wind Chill: 44°   Ceiling: 5000
Heat Index: 48°   Visibility: 10mi
Dew Point: 34°   Wind: 9mph
Humidity: 60%   Direction: 240°WSW
Pressure: 29.77"   Gusts: NA
Location:  37.58°N, 88.44°W
Report Text: KHSB 242015Z AUTO 24008KT 10SM BKN050 09/01 A2977 RMK AO2 T00880013
Loading
Personal Weather Stations






























Interactive Weather Map New forecast layout! Learn more

10-Day Weather Forecast

Advertisements
Track Severe Weather on mobile